Ruby, South Carolina
Current Conditions -  °F | °C
As of 1:55 PM on Tuesday 27 Jan 2015 (Local Time) from KCQW Reporting Station
Clear Clear  
Wind Chill: 41°   Ceiling: Unl
Heat Index: 45°   Visibility: 10mi
Dew Point:   Wind: 7mph
Humidity: 23%   Direction: 320°NW
Pressure: 29.82"   Gusts: 17mph
Location:  34.75°N, 80.18°W
Report Text: KCQW 271855Z AUTO 32006G15KT 10SM CLR 07/M13 A2982 RMK AO2
Loading
Personal Weather Stations






























Interactive Weather Map New forecast layout! Learn more

10-Day Weather Forecast

Advertisements
Track Severe Weather on mobile